Corral de Bustos, Argentina
Current Conditions -  °F | °C
As of 6:30 PM on Friday 31 Oct 2014 (Local Time) from SAAR Reporting Station
Light Rain Light Rain  
Wind Chill: 68°   Ceiling: 5000
Heat Index: 68°   Visibility: 6mi
Dew Point: 61°   Wind: 0mph
Humidity: 78%   Direction: NA
Pressure: 29.97"   Gusts: NA
Location:  33.28°S, 62.2°W
Report Text: SAAR 312130Z 00000KT 9000 -RA SCT025 SCT040TCU BKN050 20/16 Q1015
Loading
Personal Weather Stations






























Interactive Weather Map
Tropical Storm Tracking
New forecast layout! Learn more

10-Day Weather Forecast

Advertisements
Track Severe Weather on mobile